sensor_id;sensor_type;location;lat;lon;timestamp;temperature;humidity
8422;DHT22;4248;48.196;10.924;2024-02-21T00:00:52;4.10;40.90
8422;DHT22;4248;48.196;10.924;2024-02-21T00:03:18;4.20;40.70
8422;DHT22;4248;48.196;10.924;2024-02-21T00:05:45;4.40;40.50
8422;DHT22;4248;48.196;10.924;2024-02-21T00:08:10;4.40;40.20
8422;DHT22;4248;48.196;10.924;2024-02-21T00:10:36;4.50;40.00
8422;DHT22;4248;48.196;10.924;2024-02-21T00:13:02;4.60;39.90
8422;DHT22;4248;48.196;10.924;2024-02-21T00:15:28;4.60;39.90
8422;DHT22;4248;48.196;10.924;2024-02-21T00:17:54;4.60;40.20
8422;DHT22;4248;48.196;10.924;2024-02-21T00:20:20;4.60;40.30
8422;DHT22;4248;48.196;10.924;2024-02-21T00:22:46;4.70;40.40
8422;DHT22;4248;48.196;10.924;2024-02-21T00:25:12;4.70;40.40
8422;DHT22;4248;48.196;10.924;2024-02-21T00:27:38;4.70;40.40
8422;DHT22;4248;48.196;10.924;2024-02-21T00:30:05;4.80;40.50
8422;DHT22;4248;48.196;10.924;2024-02-21T00:32:31;4.80;40.50
8422;DHT22;4248;48.196;10.924;2024-02-21T00:34:57;4.80;40.60
8422;DHT22;4248;48.196;10.924;2024-02-21T00:37:23;4.80;40.50
8422;DHT22;4248;48.196;10.924;2024-02-21T00:39:49;4.90;40.70
8422;DHT22;4248;48.196;10.924;2024-02-21T00:42:14;4.90;40.80
8422;DHT22;4248;48.196;10.924;2024-02-21T00:44:40;4.90;40.70
8422;DHT22;4248;48.196;10.924;2024-02-21T00:47:06;4.90;40.70
8422;DHT22;4248;48.196;10.924;2024-02-21T00:49:31;5.00;40.70
8422;DHT22;4248;48.196;10.924;2024-02-21T00:51:57;5.00;40.50
8422;DHT22;4248;48.196;10.924;2024-02-21T00:54:23;5.00;40.60
8422;DHT22;4248;48.196;10.924;2024-02-21T00:56:48;5.00;40.70
8422;DHT22;4248;48.196;10.924;2024-02-21T00:59:14;5.00;40.90
8422;DHT22;4248;48.196;10.924;2024-02-21T01:01:40;5.00;40.90
8422;DHT22;4248;48.196;10.924;2024-02-21T01:04:09;5.00;41.10
8422;DHT22;4248;48.196;10.924;2024-02-21T01:06:34;5.00;41.20
8422;DHT22;4248;48.196;10.924;2024-02-21T01:09:00;5.00;41.20
8422;DHT22;4248;48.196;10.924;2024-02-21T01:11:26;5.00;41.40
8422;DHT22;4248;48.196;10.924;2024-02-21T01:13:51;5.00;41.50
8422;DHT22;4248;48.196;10.924;2024-02-21T01:16:17;5.10;41.60
8422;DHT22;4248;48.196;10.924;2024-02-21T01:18:43;5.10;41.60
8422;DHT22;4248;48.196;10.924;2024-02-21T01:21:09;5.10;41.50
8422;DHT22;4248;48.196;10.924;2024-02-21T01:23:36;5.10;41.60
8422;DHT22;4248;48.196;10.924;2024-02-21T01:26:03;5.20;41.60
8422;DHT22;4248;48.196;10.924;2024-02-21T01:28:29;5.20;41.70
8422;DHT22;4248;48.196;10.924;2024-02-21T01:30:54;5.20;42.90
8422;DHT22;4248;48.196;10.924;2024-02-21T01:33:21;5.20;41.90
8422;DHT22;4248;48.196;10.924;2024-02-21T01:35:46;5.10;42.00
8422;DHT22;4248;48.196;10.924;2024-02-21T01:38:13;5.20;42.00
8422;DHT22;4248;48.196;10.924;2024-02-21T01:40:39;5.20;42.10
8422;DHT22;4248;48.196;10.924;2024-02-21T01:43:18;5.20;42.30
8422;DHT22;4248;48.196;10.924;2024-02-21T01:45:50;5.20;42.30
8422;DHT22;4248;48.196;10.924;2024-02-21T01:48:20;5.20;42.20
8422;DHT22;4248;48.196;10.924;2024-02-21T01:50:47;5.20;42.10
8422;DHT22;4248;48.196;10.924;2024-02-21T01:53:17;5.20;41.90
8422;DHT22;4248;48.196;10.924;2024-02-21T01:55:48;5.30;41.80
8422;DHT22;4248;48.196;10.924;2024-02-21T01:58:14;5.30;41.80
8422;DHT22;4248;48.196;10.924;2024-02-21T02:00:44;5.30;41.80
8422;DHT22;4248;48.196;10.924;2024-02-21T02:03:12;5.30;41.70
8422;DHT22;4248;48.196;10.924;2024-02-21T02:05:46;5.30;41.80
8422;DHT22;4248;48.196;10.924;2024-02-21T02:08:16;5.30;41.90
8422;DHT22;4248;48.196;10.924;2024-02-21T02:10:43;5.30;41.90
8422;DHT22;4248;48.196;10.924;2024-02-21T02:13:09;5.30;41.90
8422;DHT22;4248;48.196;10.924;2024-02-21T02:15:46;5.30;42.20
8422;DHT22;4248;48.196;10.924;2024-02-21T02:18:14;5.20;42.30
8422;DHT22;4248;48.196;10.924;2024-02-21T02:20:41;5.20;42.50
8422;DHT22;4248;48.196;10.924;2024-02-21T02:23:25;5.20;42.70
8422;DHT22;4248;48.196;10.924;2024-02-21T02:25:51;5.10;43.10
8422;DHT22;4248;48.196;10.924;2024-02-21T02:28:20;5.00;43.20
8422;DHT22;4248;48.196;10.924;2024-02-21T02:30:46;5.00;43.50
8422;DHT22;4248;48.196;10.924;2024-02-21T02:33:12;5.00;43.50
8422;DHT22;4248;48.196;10.924;2024-02-21T02:35:38;5.00;43.30
8422;DHT22;4248;48.196;10.924;2024-02-21T02:38:04;5.00;43.20
8422;DHT22;4248;48.196;10.924;2024-02-21T02:40:34;5.00;43.20
8422;DHT22;4248;48.196;10.924;2024-02-21T02:43:00;5.00;43.00
8422;DHT22;4248;48.196;10.924;2024-02-21T02:45:26;5.00;43.10
8422;DHT22;4248;48.196;10.924;2024-02-21T02:47:58;4.90;43.30
8422;DHT22;4248;48.196;10.924;2024-02-21T02:50:24;4.80;43.70
8422;DHT22;4248;48.196;10.924;2024-02-21T02:52:50;4.80;43.80
8422;DHT22;4248;48.196;10.924;2024-02-21T02:55:16;4.80;44.00
8422;DHT22;4248;48.196;10.924;2024-02-21T02:57:42;4.80;43.90
8422;DHT22;4248;48.196;10.924;2024-02-21T03:00:09;4.80;43.90
8422;DHT22;4248;48.196;10.924;2024-02-21T03:02:38;4.80;43.90
8422;DHT22;4248;48.196;10.924;2024-02-21T03:05:12;4.80;43.80
8422;DHT22;4248;48.196;10.924;2024-02-21T03:07:39;4.80;43.80
8422;DHT22;4248;48.196;10.924;2024-02-21T03:10:06;4.80;43.50
8422;DHT22;4248;48.196;10.924;2024-02-21T03:12:34;4.90;43.60
8422;DHT22;4248;48.196;10.924;2024-02-21T03:15:00;4.90;43.40
8422;DHT22;4248;48.196;10.924;2024-02-21T03:17:26;4.90;43.30
8422;DHT22;4248;48.196;10.924;2024-02-21T03:19:54;4.90;43.20
8422;DHT22;4248;48.196;10.924;2024-02-21T03:22:24;4.80;43.30
8422;DHT22;4248;48.196;10.924;2024-02-21T03:24:49;4.80;43.50
8422;DHT22;4248;48.196;10.924;2024-02-21T03:27:15;4.80;43.60
8422;DHT22;4248;48.196;10.924;2024-02-21T03:29:41;4.80;43.70
8422;DHT22;4248;48.196;10.924;2024-02-21T03:32:06;4.80;43.60
8422;DHT22;4248;48.196;10.924;2024-02-21T03:34:32;4.90;43.60
8422;DHT22;4248;48.196;10.924;2024-02-21T03:36:58;4.90;43.40
8422;DHT22;4248;48.196;10.924;2024-02-21T03:39:24;4.90;43.30
8422;DHT22;4248;48.196;10.924;2024-02-21T03:41:50;5.00;43.20
8422;DHT22;4248;48.196;10.924;2024-02-21T03:44:16;5.00;43.20
8422;DHT22;4248;48.196;10.924;2024-02-21T03:46:42;5.00;44.30
8422;DHT22;4248;48.196;10.924;2024-02-21T03:49:08;5.10;43.00
8422;DHT22;4248;48.196;10.924;2024-02-21T03:51:34;5.10;42.90
8422;DHT22;4248;48.196;10.924;2024-02-21T03:53:59;5.20;42.80
8422;DHT22;4248;48.196;10.924;2024-02-21T03:56:25;5.30;42.50
8422;DHT22;4248;48.196;10.924;2024-02-21T03:58:51;5.30;42.30
8422;DHT22;4248;48.196;10.924;2024-02-21T04:01:17;5.30;42.10
8422;DHT22;4248;48.196;10.924;2024-02-21T04:03:43;5.40;42.00
8422;DHT22;4248;48.196;10.924;2024-02-21T04:06:09;5.40;41.60
8422;DHT22;4248;48.196;10.924;2024-02-21T04:08:35;5.50;41.50
8422;DHT22;4248;48.196;10.924;2024-02-21T04:11:01;5.60;41.30
8422;DHT22;4248;48.196;10.924;2024-02-21T04:13:26;5.60;41.20
8422;DHT22;4248;48.196;10.924;2024-02-21T04:15:52;5.60;41.00
8422;DHT22;4248;48.196;10.924;2024-02-21T04:18:18;5.60;41.00
8422;DHT22;4248;48.196;10.924;2024-02-21T04:20:44;5.60;41.00
8422;DHT22;4248;48.196;10.924;2024-02-21T04:23:09;5.60;41.00
8422;DHT22;4248;48.196;10.924;2024-02-21T04:25:35;5.70;41.00
8422;DHT22;4248;48.196;10.924;2024-02-21T04:28:01;5.70;40.90
8422;DHT22;4248;48.196;10.924;2024-02-21T04:30:27;5.60;40.90
8422;DHT22;4248;48.196;10.924;2024-02-21T04:32:53;5.60;41.10
8422;DHT22;4248;48.196;10.924;2024-02-21T04:35:19;5.50;41.30
8422;DHT22;4248;48.196;10.924;2024-02-21T04:37:44;5.40;41.60
8422;DHT22;4248;48.196;10.924;2024-02-21T04:40:10;5.30;41.90
8422;DHT22;4248;48.196;10.924;2024-02-21T04:42:36;5.20;43.40
8422;DHT22;4248;48.196;10.924;2024-02-21T04:45:02;5.10;42.40
8422;DHT22;4248;48.196;10.924;2024-02-21T04:47:27;4.90;42.70
8422;DHT22;4248;48.196;10.924;2024-02-21T04:49:53;4.80;43.30
8422;DHT22;4248;48.196;10.924;2024-02-21T04:52:19;4.70;43.70
8422;DHT22;4248;48.196;10.924;2024-02-21T04:54:45;4.50;44.30
8422;DHT22;4248;48.196;10.924;2024-02-21T04:57:11;4.40;44.50
8422;DHT22;4248;48.196;10.924;2024-02-21T04:59:36;4.40;44.40
8422;DHT22;4248;48.196;10.924;2024-02-21T05:02:03;4.40;44.30
8422;DHT22;4248;48.196;10.924;2024-02-21T05:04:28;4.30;44.00
8422;DHT22;4248;48.196;10.924;2024-02-21T05:06:54;4.30;43.80
8422;DHT22;4248;48.196;10.924;2024-02-21T05:09:20;4.30;43.60
8422;DHT22;4248;48.196;10.924;2024-02-21T05:11:45;4.30;43.30
8422;DHT22;4248;48.196;10.924;2024-02-21T05:14:11;4.30;43.40
8422;DHT22;4248;48.196;10.924;2024-02-21T05:16:38;4.30;43.30
8422;DHT22;4248;48.196;10.924;2024-02-21T05:19:05;4.20;43.20
8422;DHT22;4248;48.196;10.924;2024-02-21T05:21:31;4.20;43.20
8422;DHT22;4248;48.196;10.924;2024-02-21T05:23:56;4.20;43.10
8422;DHT22;4248;48.196;10.924;2024-02-21T05:26:23;4.20;43.10
8422;DHT22;4248;48.196;10.924;2024-02-21T05:28:49;4.20;42.80
8422;DHT22;4248;48.196;10.924;2024-02-21T05:31:18;4.30;43.00
8422;DHT22;4248;48.196;10.924;2024-02-21T05:33:44;4.30;42.80
8422;DHT22;4248;48.196;10.924;2024-02-21T05:36:11;4.30;42.60
8422;DHT22;4248;48.196;10.924;2024-02-21T05:38:37;4.40;42.30
8422;DHT22;4248;48.196;10.924;2024-02-21T05:41:03;4.40;42.10
8422;DHT22;4248;48.196;10.924;2024-02-21T05:43:29;4.50;41.80
8422;DHT22;4248;48.196;10.924;2024-02-21T05:45:55;4.60;41.50
8422;DHT22;4248;48.196;10.924;2024-02-21T05:48:22;4.60;41.30
8422;DHT22;4248;48.196;10.924;2024-02-21T05:50:47;4.70;42.30
8422;DHT22;4248;48.196;10.924;2024-02-21T05:53:13;4.70;41.10
8422;DHT22;4248;48.196;10.924;2024-02-21T05:55:40;4.70;41.10
8422;DHT22;4248;48.196;10.924;2024-02-21T05:58:06;4.80;41.10
8422;DHT22;4248;48.196;10.924;2024-02-21T06:00:32;4.80;41.10
8422;DHT22;4248;48.196;10.924;2024-02-21T06:02:58;4.80;41.20
8422;DHT22;4248;48.196;10.924;2024-02-21T06:05:23;4.80;41.40
8422;DHT22;4248;48.196;10.924;2024-02-21T06:07:49;4.70;41.40
8422;DHT22;4248;48.196;10.924;2024-02-21T06:10:15;4.70;41.30
8422;DHT22;4248;48.196;10.924;2024-02-21T06:12:44;4.80;41.20
8422;DHT22;4248;48.196;10.924;2024-02-21T06:15:09;4.80;41.10
8422;DHT22;4248;48.196;10.924;2024-02-21T06:17:35;4.90;40.70
8422;DHT22;4248;48.196;10.924;2024-02-21T06:20:01;4.90;40.60
8422;DHT22;4248;48.196;10.924;2024-02-21T06:22:26;5.00;40.60
8422;DHT22;4248;48.196;10.924;2024-02-21T06:24:52;5.00;40.50
8422;DHT22;4248;48.196;10.924;2024-02-21T06:27:19;5.00;40.50
8422;DHT22;4248;48.196;10.924;2024-02-21T06:29:45;5.00;40.50
8422;DHT22;4248;48.196;10.924;2024-02-21T06:32:11;5.00;40.40
8422;DHT22;4248;48.196;10.924;2024-02-21T06:34:36;5.10;40.10
8422;DHT22;4248;48.196;10.924;2024-02-21T06:37:02;5.10;39.70
8422;DHT22;4248;48.196;10.924;2024-02-21T06:39:28;5.30;39.50
8422;DHT22;4248;48.196;10.924;2024-02-21T06:41:54;5.30;39.20
8422;DHT22;4248;48.196;10.924;2024-02-21T06:44:21;5.40;39.00
8422;DHT22;4248;48.196;10.924;2024-02-21T06:46:47;5.50;38.80
8422;DHT22;4248;48.196;10.924;2024-02-21T06:49:12;5.60;39.70
8422;DHT22;4248;48.196;10.924;2024-02-21T06:51:45;5.70;38.00
8422;DHT22;4248;48.196;10.924;2024-02-21T06:54:10;5.80;37.80
8422;DHT22;4248;48.196;10.924;2024-02-21T06:56:37;5.80;37.70
8422;DHT22;4248;48.196;10.924;2024-02-21T06:59:03;5.90;37.60
8422;DHT22;4248;48.196;10.924;2024-02-21T07:01:30;5.90;37.50
8422;DHT22;4248;48.196;10.924;2024-02-21T07:03:56;6.00;37.20
8422;DHT22;4248;48.196;10.924;2024-02-21T07:06:22;6.10;37.10
8422;DHT22;4248;48.196;10.924;2024-02-21T07:08:48;6.20;37.00
8422;DHT22;4248;48.196;10.924;2024-02-21T07:11:13;6.20;36.60
8422;DHT22;4248;48.196;10.924;2024-02-21T07:13:39;6.20;36.60
8422;DHT22;4248;48.196;10.924;2024-02-21T07:16:06;6.30;36.90
8422;DHT22;4248;48.196;10.924;2024-02-21T07:18:31;6.20;37.20
8422;DHT22;4248;48.196;10.924;2024-02-21T07:20:57;6.20;37.20
8422;DHT22;4248;48.196;10.924;2024-02-21T07:23:23;6.30;37.20
8422;DHT22;4248;48.196;10.924;2024-02-21T07:25:49;6.30;37.10
8422;DHT22;4248;48.196;10.924;2024-02-21T07:28:15;6.40;36.80
8422;DHT22;4248;48.196;10.924;2024-02-21T07:30:42;6.40;36.60
8422;DHT22;4248;48.196;10.924;2024-02-21T07:33:07;6.40;36.30
8422;DHT22;4248;48.196;10.924;2024-02-21T07:35:33;6.50;36.40
8422;DHT22;4248;48.196;10.924;2024-02-21T07:37:59;6.60;36.50
8422;DHT22;4248;48.196;10.924;2024-02-21T07:40:25;6.60;36.50
8422;DHT22;4248;48.196;10.924;2024-02-21T07:42:50;6.80;36.30
8422;DHT22;4248;48.196;10.924;2024-02-21T07:45:16;6.70;36.10
8422;DHT22;4248;48.196;10.924;2024-02-21T07:47:43;6.70;35.90
8422;DHT22;4248;48.196;10.924;2024-02-21T07:50:09;6.70;35.70
8422;DHT22;4248;48.196;10.924;2024-02-21T07:52:35;6.70;36.00
8422;DHT22;4248;48.196;10.924;2024-02-21T07:55:01;6.70;35.40
8422;DHT22;4248;48.196;10.924;2024-02-21T07:57:30;6.70;35.40
8422;DHT22;4248;48.196;10.924;2024-02-21T07:59:55;6.90;35.30
8422;DHT22;4248;48.196;10.924;2024-02-21T08:02:21;6.90;35.00
8422;DHT22;4248;48.196;10.924;2024-02-21T08:04:47;7.00;34.90
8422;DHT22;4248;48.196;10.924;2024-02-21T08:07:12;7.10;34.50
8422;DHT22;4248;48.196;10.924;2024-02-21T08:09:40;7.20;34.10
8422;DHT22;4248;48.196;10.924;2024-02-21T08:12:06;7.30;34.30
8422;DHT22;4248;48.196;10.924;2024-02-21T08:14:31;7.40;34.10
8422;DHT22;4248;48.196;10.924;2024-02-21T08:16:57;7.50;33.40
8422;DHT22;4248;48.196;10.924;2024-02-21T08:19:23;7.60;33.60
8422;DHT22;4248;48.196;10.924;2024-02-21T08:21:48;7.70;33.20
8422;DHT22;4248;48.196;10.924;2024-02-21T08:24:17;7.80;32.80
8422;DHT22;4248;48.196;10.924;2024-02-21T08:26:44;7.90;32.60
8422;DHT22;4248;48.196;10.924;2024-02-21T08:29:13;8.00;32.30
8422;DHT22;4248;48.196;10.924;2024-02-21T08:31:38;8.10;32.20
8422;DHT22;4248;48.196;10.924;2024-02-21T08:34:04;8.20;33.40
8422;DHT22;4248;48.196;10.924;2024-02-21T08:36:34;8.30;31.90
8422;DHT22;4248;48.196;10.924;2024-02-21T08:39:01;8.40;31.60
8422;DHT22;4248;48.196;10.924;2024-02-21T08:41:30;8.50;31.30
8422;DHT22;4248;48.196;10.924;2024-02-21T08:43:56;8.60;31.00
8422;DHT22;4248;48.196;10.924;2024-02-21T08:46:23;8.70;30.40
8422;DHT22;4248;48.196;10.924;2024-02-21T08:48:50;8.80;30.00
8422;DHT22;4248;48.196;10.924;2024-02-21T08:51:17;8.90;29.70
8422;DHT22;4248;48.196;10.924;2024-02-21T08:53:44;9.00;29.30
8422;DHT22;4248;48.196;10.924;2024-02-21T08:56:10;9.20;29.50
8422;DHT22;4248;48.196;10.924;2024-02-21T08:58:36;9.20;28.30
8422;DHT22;4248;48.196;10.924;2024-02-21T09:01:03;9.40;28.10
8422;DHT22;4248;48.196;10.924;2024-02-21T09:03:33;9.50;27.50
8422;DHT22;4248;48.196;10.924;2024-02-21T09:05:59;9.60;27.30
8422;DHT22;4248;48.196;10.924;2024-02-21T09:08:25;9.60;26.90
8422;DHT22;4248;48.196;10.924;2024-02-21T09:10:51;9.70;26.70
8422;DHT22;4248;48.196;10.924;2024-02-21T09:13:17;9.80;26.70
8422;DHT22;4248;48.196;10.924;2024-02-21T09:15:43;9.90;26.80
8422;DHT22;4248;48.196;10.924;2024-02-21T09:18:09;10.00;26.00
8422;DHT22;4248;48.196;10.924;2024-02-21T09:20:35;10.10;25.10
8422;DHT22;4248;48.196;10.924;2024-02-21T09:23:01;10.20;25.20
8422;DHT22;4248;48.196;10.924;2024-02-21T09:25:26;10.40;24.80
8422;DHT22;4248;48.196;10.924;2024-02-21T09:27:54;10.30;24.10
8422;DHT22;4248;48.196;10.924;2024-02-21T09:30:20;10.30;23.50
8422;DHT22;4248;48.196;10.924;2024-02-21T09:32:46;10.50;23.40
8422;DHT22;4248;48.196;10.924;2024-02-21T09:35:11;10.60;23.00
8422;DHT22;4248;48.196;10.924;2024-02-21T09:37:38;10.70;22.90
8422;DHT22;4248;48.196;10.924;2024-02-21T09:40:05;10.80;22.70
8422;DHT22;4248;48.196;10.924;2024-02-21T09:42:37;10.90;22.40
8422;DHT22;4248;48.196;10.924;2024-02-21T09:45:20;10.80;21.30
8422;DHT22;4248;48.196;10.924;2024-02-21T09:50:39;11.00;20.90
8422;DHT22;4248;48.196;10.924;2024-02-21T09:53:11;11.20;20.90
8422;DHT22;4248;48.196;10.924;2024-02-21T09:55:38;11.30;20.50
8422;DHT22;4248;48.196;10.924;2024-02-21T09:58:07;11.40;20.20
8422;DHT22;4248;48.196;10.924;2024-02-21T10:00:33;11.50;20.00
8422;DHT22;4248;48.196;10.924;2024-02-21T10:02:59;11.50;19.00
8422;DHT22;4248;48.196;10.924;2024-02-21T10:05:25;11.60;19.20
8422;DHT22;4248;48.196;10.924;2024-02-21T10:07:52;11.80;19.00
8422;DHT22;4248;48.196;10.924;2024-02-21T10:10:18;12.00;18.90
8422;DHT22;4248;48.196;10.924;2024-02-21T10:12:53;12.10;18.70
8422;DHT22;4248;48.196;10.924;2024-02-21T10:15:24;12.30;18.10
8422;DHT22;4248;48.196;10.924;2024-02-21T10:17:58;12.40;18.80
8422;DHT22;4248;48.196;10.924;2024-02-21T10:20:24;12.60;17.20
8422;DHT22;4248;48.196;10.924;2024-02-21T10:23:00;12.70;17.10
8422;DHT22;4248;48.196;10.924;2024-02-21T10:25:27;12.70;17.00
8422;DHT22;4248;48.196;10.924;2024-02-21T10:27:53;12.80;16.10
8422;DHT22;4248;48.196;10.924;2024-02-21T10:30:19;12.90;16.10
8422;DHT22;4248;48.196;10.924;2024-02-21T10:32:53;13.00;16.20
8422;DHT22;4248;48.196;10.924;2024-02-21T10:35:32;13.10;16.10
8422;DHT22;4248;48.196;10.924;2024-02-21T10:37:59;13.20;14.50
8422;DHT22;4248;48.196;10.924;2024-02-21T10:40:29;13.10;14.00
8422;DHT22;4248;48.196;10.924;2024-02-21T10:42:58;13.20;13.90
8422;DHT22;4248;48.196;10.924;2024-02-21T10:45:32;13.30;14.00
8422;DHT22;4248;48.196;10.924;2024-02-21T10:48:12;13.30;14.00
8422;DHT22;4248;48.196;10.924;2024-02-21T10:53:35;13.40;14.00
8422;DHT22;4248;48.196;10.924;2024-02-21T10:56:31;13.50;13.30
8422;DHT22;4248;48.196;10.924;2024-02-21T10:59:02;13.60;13.10
8422;DHT22;4248;48.196;10.924;2024-02-21T11:01:29;13.70;13.20
8422;DHT22;4248;48.196;10.924;2024-02-21T11:03:59;13.80;13.00
8422;DHT22;4248;48.196;10.924;2024-02-21T11:06:27;13.90;12.90
8422;DHT22;4248;48.196;10.924;2024-02-21T11:09:08;13.90;12.30
8422;DHT22;4248;48.196;10.924;2024-02-21T11:11:35;13.90;12.20
8422;DHT22;4248;48.196;10.924;2024-02-21T11:14:08;13.90;12.50
8422;DHT22;4248;48.196;10.924;2024-02-21T11:16:36;13.90;12.10
8422;DHT22;4248;48.196;10.924;2024-02-21T11:19:25;14.00;11.80
8422;DHT22;4248;48.196;10.924;2024-02-21T11:21:51;14.10;11.20
8422;DHT22;4248;48.196;10.924;2024-02-21T11:24:31;14.20;11.50
8422;DHT22;4248;48.196;10.924;2024-02-21T11:27:19;14.20;10.70
8422;DHT22;4248;48.196;10.924;2024-02-21T11:29:56;14.20;10.20
8422;DHT22;4248;48.196;10.924;2024-02-21T11:32:22;14.00;10.40
8422;DHT22;4248;48.196;10.924;2024-02-21T11:34:58;13.90;10.00
8422;DHT22;4248;48.196;10.924;2024-02-21T11:37:29;14.00;9.50
8422;DHT22;4248;48.196;10.924;2024-02-21T11:39:55;14.00;9.80
8422;DHT22;4248;48.196;10.924;2024-02-21T11:42:22;14.10;9.60
8422;DHT22;4248;48.196;10.924;2024-02-21T11:44:48;14.10;9.50
8422;DHT22;4248;48.196;10.924;2024-02-21T11:47:14;14.10;9.50
8422;DHT22;4248;48.196;10.924;2024-02-21T11:49:48;14.10;8.90
8422;DHT22;4248;48.196;10.924;2024-02-21T11:52:18;14.00;8.70
8422;DHT22;4248;48.196;10.924;2024-02-21T11:54:49;14.10;8.90
8422;DHT22;4248;48.196;10.924;2024-02-21T11:57:15;14.10;8.70
8422;DHT22;4248;48.196;10.924;2024-02-21T11:59:40;14.10;8.30
8422;DHT22;4248;48.196;10.924;2024-02-21T12:02:06;14.10;8.40
8422;DHT22;4248;48.196;10.924;2024-02-21T12:04:33;14.10;8.10
8422;DHT22;4248;48.196;10.924;2024-02-21T12:07:02;14.20;8.00
8422;DHT22;4248;48.196;10.924;2024-02-21T12:09:29;14.10;7.20
8422;DHT22;4248;48.196;10.924;2024-02-21T12:12:00;14.20;7.20
8422;DHT22;4248;48.196;10.924;2024-02-21T12:14:27;14.30;7.30
8422;DHT22;4248;48.196;10.924;2024-02-21T12:16:54;14.30;7.30
8422;DHT22;4248;48.196;10.924;2024-02-21T12:19:20;14.50;7.40
8422;DHT22;4248;48.196;10.924;2024-02-21T12:21:48;14.50;7.40
8422;DHT22;4248;48.196;10.924;2024-02-21T12:24:22;14.60;7.10
8422;DHT22;4248;48.196;10.924;2024-02-21T12:26:49;14.60;6.80
8422;DHT22;4248;48.196;10.924;2024-02-21T12:29:15;14.70;6.40
8422;DHT22;4248;48.196;10.924;2024-02-21T12:31:41;14.80;5.60
8422;DHT22;4248;48.196;10.924;2024-02-21T12:34:06;14.80;5.30
8422;DHT22;4248;48.196;10.924;2024-02-21T12:36:40;14.90;4.80
8422;DHT22;4248;48.196;10.924;2024-02-21T12:39:06;14.90;4.50
8422;DHT22;4248;48.196;10.924;2024-02-21T12:41:31;15.10;4.50
8422;DHT22;4248;48.196;10.924;2024-02-21T12:43:58;15.20;4.00
8422;DHT22;4248;48.196;10.924;2024-02-21T12:46:24;15.10;3.00
8422;DHT22;4248;48.196;10.924;2024-02-21T12:48:50;15.10;3.60
8422;DHT22;4248;48.196;10.924;2024-02-21T12:51:16;15.00;3.40
8422;DHT22;4248;48.196;10.924;2024-02-21T12:53:48;15.10;3.40
8422;DHT22;4248;48.196;10.924;2024-02-21T12:56:15;15.00;3.20
8422;DHT22;4248;48.196;10.924;2024-02-21T12:58:42;15.00;2.70
8422;DHT22;4248;48.196;10.924;2024-02-21T13:01:07;14.90;2.70
8422;DHT22;4248;48.196;10.924;2024-02-21T13:03:33;14.90;2.70
8422;DHT22;4248;48.196;10.924;2024-02-21T13:05:59;14.90;2.70
8422;DHT22;4248;48.196;10.924;2024-02-21T13:08:25;14.90;2.60
8422;DHT22;4248;48.196;10.924;2024-02-21T13:10:51;14.90;2.50
8422;DHT22;4248;48.196;10.924;2024-02-21T13:13:16;14.90;2.40
8422;DHT22;4248;48.196;10.924;2024-02-21T13:15:42;14.80;2.00
8422;DHT22;4248;48.196;10.924;2024-02-21T13:18:08;14.70;1.50
8422;DHT22;4248;48.196;10.924;2024-02-21T13:20:35;14.60;1.60
8422;DHT22;4248;48.196;10.924;2024-02-21T13:23:01;14.60;1.50
8422;DHT22;4248;48.196;10.924;2024-02-21T13:25:26;14.60;1.20
8422;DHT22;4248;48.196;10.924;2024-02-21T13:27:52;14.70;1.40
8422;DHT22;4248;48.196;10.924;2024-02-21T13:30:18;14.60;1.00
8422;DHT22;4248;48.196;10.924;2024-02-21T13:32:44;14.40;1.00
8422;DHT22;4248;48.196;10.924;2024-02-21T13:35:12;14.30;1.00
8422;DHT22;4248;48.196;10.924;2024-02-21T13:37:41;14.20;1.10
8422;DHT22;4248;48.196;10.924;2024-02-21T13:40:10;14.20;1.60
8422;DHT22;4248;48.196;10.924;2024-02-21T13:42:37;14.30;1.60
8422;DHT22;4248;48.196;10.924;2024-02-21T13:45:04;14.30;1.80
8422;DHT22;4248;48.196;10.924;2024-02-21T13:47:35;14.50;1.70
8422;DHT22;4248;48.196;10.924;2024-02-21T13:50:07;14.50;2.00
8422;DHT22;4248;48.196;10.924;2024-02-21T13:52:39;14.40;1.00
8422;DHT22;4248;48.196;10.924;2024-02-21T13:55:05;14.30;1.00
8422;DHT22;4248;48.196;10.924;2024-02-21T13:57:34;14.10;1.00
8422;DHT22;4248;48.196;10.924;2024-02-21T14:00:00;14.10;1.20
8422;DHT22;4248;48.196;10.924;2024-02-21T14:02:25;14.20;1.00
8422;DHT22;4248;48.196;10.924;2024-02-21T14:04:51;14.30;1.50
8422;DHT22;4248;48.196;10.924;2024-02-21T14:07:17;14.20;1.00
8422;DHT22;4248;48.196;10.924;2024-02-21T14:09:43;14.20;1.20
8422;DHT22;4248;48.196;10.924;2024-02-21T14:12:08;14.30;1.10
8422;DHT22;4248;48.196;10.924;2024-02-21T14:14:35;14.40;1.00
8422;DHT22;4248;48.196;10.924;2024-02-21T14:17:02;14.50;1.00
8422;DHT22;4248;48.196;10.924;2024-02-21T14:19:29;14.50;1.00
8422;DHT22;4248;48.196;10.924;2024-02-21T14:21:55;14.50;1.00
8422;DHT22;4248;48.196;10.924;2024-02-21T14:24:22;14.40;1.00
8422;DHT22;4248;48.196;10.924;2024-02-21T14:26:48;14.30;1.40
8422;DHT22;4248;48.196;10.924;2024-02-21T14:29:14;14.30;1.30
8422;DHT22;4248;48.196;10.924;2024-02-21T14:31:40;14.30;1.30
8422;DHT22;4248;48.196;10.924;2024-02-21T14:34:06;14.10;1.40
8422;DHT22;4248;48.196;10.924;2024-02-21T14:36:33;14.00;1.00
8422;DHT22;4248;48.196;10.924;2024-02-21T14:38:59;13.80;1.30
8422;DHT22;4248;48.196;10.924;2024-02-21T14:41:24;13.90;1.60
8422;DHT22;4248;48.196;10.924;2024-02-21T14:43:50;13.80;1.40
8422;DHT22;4248;48.196;10.924;2024-02-21T14:46:17;13.90;1.50
8422;DHT22;4248;48.196;10.924;2024-02-21T14:48:42;13.80;1.30
8422;DHT22;4248;48.196;10.924;2024-02-21T14:51:11;13.70;1.50
8422;DHT22;4248;48.196;10.924;2024-02-21T14:53:37;13.50;2.10
8422;DHT22;4248;48.196;10.924;2024-02-21T14:56:03;13.40;2.60
8422;DHT22;4248;48.196;10.924;2024-02-21T14:58:29;13.20;2.80
8422;DHT22;4248;48.196;10.924;2024-02-21T15:00:56;13.10;3.20
8422;DHT22;4248;48.196;10.924;2024-02-21T15:03:22;13.10;3.30
8422;DHT22;4248;48.196;10.924;2024-02-21T15:05:53;13.10;3.20
8422;DHT22;4248;48.196;10.924;2024-02-21T15:08:22;13.10;3.10
8422;DHT22;4248;48.196;10.924;2024-02-21T15:10:48;13.10;3.30
8422;DHT22;4248;48.196;10.924;2024-02-21T15:13:16;13.00;3.60
8422;DHT22;4248;48.196;10.924;2024-02-21T15:15:41;13.00;3.80
8422;DHT22;4248;48.196;10.924;2024-02-21T15:18:07;12.90;4.00
8422;DHT22;4248;48.196;10.924;2024-02-21T15:20:33;12.90;4.20
8422;DHT22;4248;48.196;10.924;2024-02-21T15:22:58;12.90;4.20
8422;DHT22;4248;48.196;10.924;2024-02-21T15:25:24;12.90;4.20
8422;DHT22;4248;48.196;10.924;2024-02-21T15:27:51;12.90;4.30
8422;DHT22;4248;48.196;10.924;2024-02-21T15:30:16;12.80;4.30
8422;DHT22;4248;48.196;10.924;2024-02-21T15:32:42;12.80;4.40
8422;DHT22;4248;48.196;10.924;2024-02-21T15:35:09;12.80;4.50
8422;DHT22;4248;48.196;10.924;2024-02-21T15:37:36;12.80;4.40
8422;DHT22;4248;48.196;10.924;2024-02-21T15:40:02;12.70;4.40
8422;DHT22;4248;48.196;10.924;2024-02-21T15:42:29;12.70;4.50
8422;DHT22;4248;48.196;10.924;2024-02-21T15:44:57;12.70;5.50
8422;DHT22;4248;48.196;10.924;2024-02-21T15:47:23;12.60;4.60
8422;DHT22;4248;48.196;10.924;2024-02-21T15:49:52;12.60;4.60
8422;DHT22;4248;48.196;10.924;2024-02-21T15:52:18;12.50;4.70
8422;DHT22;4248;48.196;10.924;2024-02-21T15:54:44;12.40;4.90
8422;DHT22;4248;48.196;10.924;2024-02-21T15:57:10;12.30;5.00
8422;DHT22;4248;48.196;10.924;2024-02-21T15:59:37;12.30;5.10
8422;DHT22;4248;48.196;10.924;2024-02-21T16:02:02;12.20;5.20
8422;DHT22;4248;48.196;10.924;2024-02-21T16:04:31;12.10;5.50